Time;durP1;ratioP1;P1;durP2;ratioP2;P2;SDS_P1;SDS_P2;PMS_P1;PMS_P2;Temp;Humidity;BMP_temperature;BMP_pressure;BME280_temperature;BME280_humidity;BME280_pressure;Samples;Min_cycle;Max_cycle;Signal;HPM_P1;HPM_P2
2023/07/05 00:01:13;;;;;;;5.80;1.90;;;19.60;75.80;;;;;;4997180;28;20409;-61
2023/07/05 00:03:40;;;;;;;3.17;2.00;;;19.50;75.70;;;;;;5005378;28;20084;-62
2023/07/05 00:06:05;;;;;;;2.92;2.10;;;19.50;76.00;;;;;;5005299;28;20525;-62
2023/07/05 00:08:33;;;;;;;3.13;1.85;;;19.60;76.20;;;;;;5006235;28;20038;-61
2023/07/05 00:11:07;;;;;;;7.85;2.00;;;19.60;76.10;;;;;;5004871;28;20033;-61
2023/07/05 00:13:33;;;;;;;2.85;1.73;;;19.60;76.90;;;;;;5006616;28;20044;-60
2023/07/05 00:15:59;;;;;;;3.78;2.05;;;19.60;75.90;;;;;;5004003;28;20449;-61
2023/07/05 00:18:25;;;;;;;2.03;1.75;;;19.60;76.30;;;;;;5007774;28;20038;-60
2023/07/05 00:20:51;;;;;;;3.30;2.10;;;19.60;76.10;;;;;;5001741;28;20050;-60
2023/07/05 00:23:16;;;;;;;2.78;2.10;;;19.60;76.00;;;;;;5007816;28;20420;-61
2023/07/05 00:25:42;;;;;;;4.72;2.25;;;19.50;75.70;;;;;;5007912;28;20517;-60
2023/07/05 00:28:07;;;;;;;4.20;1.98;;;19.50;75.60;;;;;;5007714;28;20501;-61
2023/07/05 00:30:33;;;;;;;5.55;2.47;;;19.50;75.70;;;;;;5004377;28;20026;-60
2023/07/05 00:32:59;;;;;;;2.60;2.00;;;19.50;75.80;;;;;;5005172;28;20035;-59
2023/07/05 00:35:24;;;;;;;2.10;1.90;;;19.50;75.80;;;;;;5007510;28;20065;-62
2023/07/05 00:37:50;;;;;;;3.88;1.98;;;19.40;76.00;;;;;;5006223;28;20084;-62
2023/07/05 00:40:16;;;;;;;4.68;2.20;;;19.40;76.20;;;;;;5007373;28;20037;-60
2023/07/05 00:42:42;;;;;;;4.97;1.80;;;19.30;76.10;;;;;;5005381;28;20038;-60
2023/07/05 00:45:11;;;;;;;3.08;2.25;;;19.40;76.20;;;;;;5004048;28;20390;-61
2023/07/05 00:47:39;;;;;;;3.78;1.85;;;19.40;76.80;;;;;;5007632;28;20033;-62
2023/07/05 00:50:31;;;;;;;4.78;2.15;;;19.30;76.30;;;;;;5002709;28;20392;-60
2023/07/05 00:52:57;;;;;;;3.00;1.85;;;19.30;76.90;;;;;;5005181;28;20696;-61
2023/07/05 00:55:27;;;;;;;1.92;1.80;;;19.30;76.10;;;;;;5003346;28;20288;-59
2023/07/05 00:57:53;;;;;;;2.72;2.15;;;19.20;76.50;;;;;;5005192;28;20086;-60
2023/07/05 01:00:21;;;;;;;3.67;2.25;;;19.20;76.70;;;;;;5003068;28;20029;-60
2023/07/05 01:02:52;;;;;;;2.03;1.80;;;19.10;76.80;;;;;;5006981;28;20034;-60
2023/07/05 01:05:19;;;;;;;6.22;2.00;;;19.00;76.70;;;;;;4999455;28;20038;-60
2023/07/05 01:07:46;;;;;;;3.83;2.28;;;18.90;76.60;;;;;;5006243;28;20065;-60
2023/07/05 01:10:20;;;;;;;3.20;1.90;;;18.90;76.80;;;;;;5004097;28;20333;-61
2023/07/05 01:13:11;;;;;;;2.97;2.27;;;18.80;78.00;;;;;;5003927;28;20412;-61
2023/07/05 01:15:55;;;;;;;3.25;1.90;;;18.70;77.70;;;;;;5005151;28;20034;-61
2023/07/05 01:18:54;;;;;;;3.00;2.15;;;18.70;77.70;;;;;;5006938;28;20735;-62
2023/07/05 01:21:43;;;;;;;2.67;2.08;;;18.70;78.30;;;;;;5003338;28;20042;-61
2023/07/05 01:24:27;;;;;;;3.40;2.00;;;18.60;78.60;;;;;;5004051;28;20478;-60
2023/07/05 01:27:04;;;;;;;3.72;2.08;;;18.50;79.10;;;;;;5004128;28;20116;-60
2023/07/05 01:29:42;;;;;;;5.03;2.17;;;18.50;79.30;;;;;;5002947;28;20034;-62
2023/07/05 01:32:11;;;;;;;2.20;2.00;;;18.40;79.20;;;;;;5003397;28;20612;-60
2023/07/05 01:34:44;;;;;;;3.38;2.20;;;18.50;78.70;;;;;;5003674;28;20133;-60
2023/07/05 01:37:22;;;;;;;2.97;1.92;;;18.40;78.70;;;;;;5004522;28;20540;-58
2023/07/05 01:39:47;;;;;;;3.63;2.40;;;18.40;78.60;;;;;;5002130;28;20042;-61
2023/07/05 01:42:13;;;;;;;3.30;2.38;;;18.40;78.90;;;;;;5005208;28;20501;-61
2023/07/05 01:44:39;;;;;;;2.90;2.25;;;18.30;79.10;;;;;;5004373;28;20034;-61
2023/07/05 01:47:23;;;;;;;2.97;2.40;;;18.20;79.70;;;;;;5005905;28;20109;-60
2023/07/05 01:49:59;;;;;;;4.75;2.90;;;18.10;81.70;;;;;;5004909;28;20087;-61
2023/07/05 01:52:51;;;;;;;3.80;2.40;;;18.00;82.40;;;;;;5004453;28;20040;-59
2023/07/05 01:55:39;;;;;;;3.65;2.22;;;17.90;82.90;;;;;;4997289;28;20037;-61
2023/07/05 01:58:14;;;;;;;2.85;2.08;;;17.90;83.30;;;;;;5005222;28;20409;-61
2023/07/05 02:00:41;;;;;;;3.13;2.10;;;17.70;82.90;;;;;;4999853;28;20493;-61
2023/07/05 02:03:13;;;;;;;2.85;2.10;;;17.70;82.20;;;;;;5001258;28;20498;-61
2023/07/05 02:05:39;;;;;;;5.78;2.78;;;17.70;83.10;;;;;;5004385;28;20037;-62
2023/07/05 02:08:04;;;;;;;2.67;2.10;;;17.80;82.70;;;;;;5001854;28;20029;-62
2023/07/05 02:10:32;;;;;;;3.00;2.40;;;17.80;83.70;;;;;;5001627;28;20113;-61
2023/07/05 02:12:58;;;;;;;4.05;2.30;;;17.80;83.00;;;;;;4999446;28;20136;-62
2023/07/05 02:15:24;;;;;;;3.60;2.10;;;17.90;82.90;;;;;;5004071;28;20579;-62
2023/07/05 02:17:50;;;;;;;3.35;2.17;;;17.90;82.70;;;;;;5004499;28;20034;-61
2023/07/05 02:20:16;;;;;;;3.92;2.20;;;17.90;82.60;;;;;;5001522;28;20309;-61
2023/07/05 02:22:42;;;;;;;2.72;2.28;;;18.00;82.60;;;;;;5002610;28;20037;-62
2023/07/05 02:25:08;;;;;;;3.47;2.40;;;18.00;83.40;;;;;;5004684;28;20056;-60
2023/07/05 02:27:34;;;;;;;4.00;2.30;;;18.10;82.50;;;;;;5004358;28;20583;-62
2023/07/05 02:30:00;;;;;;;3.33;2.05;;;18.10;82.20;;;;;;5002498;28;20120;-60
2023/07/05 02:32:26;;;;;;;2.78;2.33;;;18.10;81.90;;;;;;5004050;28;20060;-61
2023/07/05 02:34:52;;;;;;;3.03;2.10;;;18.20;82.00;;;;;;5003839;28;20030;-62
2023/07/05 02:37:18;;;;;;;1.95;1.73;;;18.20;82.00;;;;;;5004150;28;20456;-62
2023/07/05 02:39:44;;;;;;;3.42;2.08;;;18.20;82.00;;;;;;5003540;28;20034;-61
2023/07/05 02:42:10;;;;;;;2.67;2.38;;;18.20;82.10;;;;;;5003341;28;20040;-62
2023/07/05 02:44:35;;;;;;;2.33;1.95;;;18.20;82.40;;;;;;5001996;28;20026;-61
2023/07/05 02:47:01;;;;;;;2.40;2.17;;;18.30;82.30;;;;;;5004675;28;20149;-61
2023/07/05 02:49:27;;;;;;;2.85;2.22;;;18.30;82.00;;;;;;5004154;28;20029;-61
2023/07/05 02:51:54;;;;;;;6.93;2.20;;;18.30;82.00;;;;;;5003117;28;20421;-60
2023/07/05 02:54:20;;;;;;;3.95;2.40;;;18.30;82.30;;;;;;5001493;28;20117;-61
2023/07/05 02:56:46;;;;;;;2.45;2.25;;;18.30;82.30;;;;;;5002493;28;20141;-61
2023/07/05 02:59:11;;;;;;;3.15;2.15;;;18.30;82.40;;;;;;5001173;28;20033;-62
2023/07/05 03:01:37;;;;;;;5.43;2.50;;;18.40;82.40;;;;;;5001672;28;20053;-62
2023/07/05 03:04:03;;;;;;;3.30;2.30;;;18.40;82.20;;;;;;5002839;28;20038;-62
2023/07/05 03:06:28;;;;;;;2.60;2.40;;;18.30;82.00;;;;;;5002690;28;20117;-62
2023/07/05 03:08:54;;;;;;;3.88;2.20;;;18.40;82.00;;;;;;5003553;28;20150;-62
2023/07/05 03:11:19;;;;;;;4.03;2.42;;;18.40;82.20;;;;;;4996315;28;20036;-62
2023/07/05 03:13:45;;;;;;;3.47;2.38;;;18.40;82.30;;;;;;5001586;28;20038;-61
2023/07/05 03:16:11;;;;;;;10.05;2.60;;;18.40;82.20;;;;;;5001503;28;20111;-61
2023/07/05 03:18:36;;;;;;;4.07;2.28;;;18.40;82.00;;;;;;5002300;28;20536;-61
2023/07/05 03:21:02;;;;;;;3.45;2.50;;;18.40;82.20;;;;;;5002550;28;20045;-61
2023/07/05 03:23:27;;;;;;;2.92;2.45;;;18.40;82.20;;;;;;5002592;28;20121;-61
2023/07/05 03:25:54;;;;;;;4.53;2.63;;;18.40;82.30;;;;;;5003242;28;20103;-62
2023/07/05 03:28:20;;;;;;;3.63;2.88;;;18.40;82.40;;;;;;4998904;28;20057;-62
2023/07/05 03:30:54;;;;;;;3.30;2.75;;;18.30;83.40;;;;;;4999371;28;20108;-63
2023/07/05 03:33:19;;;;;;;3.80;2.45;;;18.30;84.00;;;;;;5000351;28;20093;-62
2023/07/05 03:35:56;;;;;;;4.53;2.50;;;18.20;84.50;;;;;;5003222;28;20033;-62
2023/07/05 03:38:24;;;;;;;3.20;2.55;;;18.10;84.80;;;;;;5002926;28;20041;-60
2023/07/05 03:41:02;;;;;;;2.95;2.47;;;18.10;84.60;;;;;;5004136;28;20038;-61
2023/07/05 03:43:30;;;;;;;2.60;2.28;;;18.10;85.70;;;;;;5004594;28;20056;-61
2023/07/05 03:45:59;;;;;;;5.13;2.40;;;18.10;84.90;;;;;;5004301;28;20121;-62
2023/07/05 03:48:25;;;;;;;4.18;2.60;;;18.00;85.50;;;;;;5005540;28;20036;-60
2023/07/05 03:50:55;;;;;;;4.05;2.47;;;18.10;85.70;;;;;;5003329;28;20129;-60
2023/07/05 03:53:21;;;;;;;6.60;2.30;;;18.00;85.90;;;;;;5005367;28;20057;-60
2023/07/05 03:55:46;;;;;;;3.20;2.03;;;18.10;85.70;;;;;;5005185;28;20038;-61
2023/07/05 03:58:12;;;;;;;3.67;2.30;;;18.00;85.80;;;;;;5005137;28;20037;-61
2023/07/05 04:00:37;;;;;;;3.67;1.90;;;18.10;85.90;;;;;;5005222;28;20045;-60
2023/07/05 04:03:03;;;;;;;1.90;1.73;;;18.00;85.90;;;;;;5007809;28;20034;-61
2023/07/05 04:05:28;;;;;;;3.15;1.65;;;18.10;86.00;;;;;;5007310;28;20038;-61
2023/07/05 04:07:54;;;;;;;3.53;1.60;;;18.20;85.90;;;;;;5006392;28;20501;-62
2023/07/05 04:10:19;;;;;;;3.95;1.90;;;18.20;85.90;;;;;;5004434;28;20030;-59
2023/07/05 04:12:45;;;;;;;3.38;2.08;;;18.20;86.00;;;;;;5003518;28;20522;-62
2023/07/05 04:15:11;;;;;;;3.10;1.40;;;18.30;86.10;;;;;;5004839;28;20436;-62
2023/07/05 04:17:36;;;;;;;2.30;1.50;;;18.30;86.00;;;;;;5004920;28;20040;-60
2023/07/05 04:20:03;;;;;;;3.92;1.50;;;18.40;86.00;;;;;;5003518;28;20322;-61
2023/07/05 04:22:31;;;;;;;5.40;1.40;;;18.40;85.90;;;;;;5004200;28;20042;-61
2023/07/05 04:24:57;;;;;;;1.85;1.65;;;18.40;86.10;;;;;;5005779;28;20129;-61
2023/07/05 04:27:22;;;;;;;2.17;1.35;;;18.30;85.90;;;;;;5007864;28;20109;-61
2023/07/05 04:29:48;;;;;;;4.85;1.73;;;18.50;86.00;;;;;;5001021;28;20049;-59
2023/07/05 04:32:14;;;;;;;3.42;1.80;;;18.50;86.00;;;;;;5006142;28;20044;-60
2023/07/05 04:34:40;;;;;;;2.63;1.65;;;18.50;85.70;;;;;;5005762;28;20118;-61
2023/07/05 04:37:06;;;;;;;3.97;1.70;;;18.60;85.60;;;;;;5007792;28;20061;-61
2023/07/05 04:39:32;;;;;;;2.83;1.63;;;18.60;85.50;;;;;;5007216;28;20048;-60
2023/07/05 04:41:57;;;;;;;2.30;1.70;;;18.60;85.50;;;;;;5006322;28;20062;-61
2023/07/05 04:44:23;;;;;;;8.32;1.65;;;18.60;85.50;;;;;;5006945;28;20042;-61
2023/07/05 04:46:49;;;;;;;3.13;1.73;;;18.60;85.70;;;;;;5006979;28;20045;-60
2023/07/05 04:49:14;;;;;;;2.17;1.98;;;18.50;85.70;;;;;;5005817;28;20438;-60
2023/07/05 04:51:40;;;;;;;2.28;1.75;;;18.50;85.70;;;;;;5006544;28;20042;-61
2023/07/05 04:54:05;;;;;;;3.17;1.83;;;18.50;85.70;;;;;;5007039;28;20121;-61
2023/07/05 04:56:31;;;;;;;2.60;2.15;;;18.50;85.50;;;;;;5006726;28;20033;-60
2023/07/05 04:58:57;;;;;;;3.20;2.15;;;18.50;85.70;;;;;;5006911;28;20061;-60
2023/07/05 05:01:22;;;;;;;3.88;2.40;;;18.50;85.70;;;;;;5004766;28;20037;-60
2023/07/05 05:03:48;;;;;;;3.83;2.55;;;18.40;85.70;;;;;;5006931;28;20088;-60
2023/07/05 05:06:14;;;;;;;2.78;2.47;;;18.40;85.80;;;;;;5006638;28;20506;-60
2023/07/05 05:08:39;;;;;;;3.35;2.65;;;18.40;86.00;;;;;;5005223;28;20026;-60
2023/07/05 05:11:06;;;;;;;3.00;2.50;;;18.40;86.00;;;;;;5003274;28;20026;-61
2023/07/05 05:13:33;;;;;;;4.07;2.60;;;18.40;86.40;;;;;;5004841;28;20042;-60
2023/07/05 05:16:00;;;;;;;4.20;2.28;;;18.40;86.60;;;;;;5006294;28;20046;-61
2023/07/05 05:18:28;;;;;;;3.88;2.40;;;18.40;86.70;;;;;;5006162;28;20345;-60
2023/07/05 05:20:54;;;;;;;3.17;2.20;;;18.40;86.90;;;;;;5005472;28;20187;-61
2023/07/05 05:23:20;;;;;;;2.80;2.13;;;18.50;86.70;;;;;;5007267;28;20280;-60
2023/07/05 05:25:46;;;;;;;3.22;2.13;;;18.50;86.90;;;;;;5004177;28;20034;-60
2023/07/05 05:28:13;;;;;;;3.00;2.15;;;18.50;86.90;;;;;;5007013;28;20182;-60
2023/07/05 05:30:40;;;;;;;3.28;2.08;;;18.60;87.00;;;;;;5003179;28;20513;-61
2023/07/05 05:33:06;;;;;;;5.57;2.20;;;18.60;86.90;;;;;;5005284;28;20498;-60
2023/07/05 05:35:32;;;;;;;6.60;2.22;;;18.60;86.90;;;;;;5006947;28;20087;-61
2023/07/05 05:37:58;;;;;;;3.42;2.00;;;18.60;86.70;;;;;;5005695;28;20030;-61
2023/07/05 05:40:24;;;;;;;9.85;2.17;;;18.70;86.90;;;;;;5004968;28;20030;-60
2023/07/05 05:42:49;;;;;;;2.72;2.03;;;18.70;86.80;;;;;;5004835;28;20037;-61
2023/07/05 05:45:15;;;;;;;8.07;2.40;;;18.70;86.70;;;;;;5005119;28;20041;-60
2023/07/05 05:47:41;;;;;;;4.75;2.28;;;18.70;86.60;;;;;;5005181;28;20034;-61
2023/07/05 05:50:07;;;;;;;3.38;2.10;;;18.70;86.70;;;;;;5006177;28;20038;-61
2023/07/05 05:52:34;;;;;;;3.97;2.10;;;18.80;86.80;;;;;;5005603;28;20034;-60
2023/07/05 05:54:59;;;;;;;4.90;2.00;;;18.80;86.90;;;;;;5005117;28;20034;-60
2023/07/05 05:57:25;;;;;;;3.60;1.55;;;18.90;87.10;;;;;;5006294;28;20036;-61
2023/07/05 05:59:50;;;;;;;3.05;1.85;;;18.90;86.90;;;;;;5004129;28;20030;-62
2023/07/05 06:02:16;;;;;;;2.65;1.92;;;19.00;86.80;;;;;;5004319;28;20440;-63
2023/07/05 06:04:41;;;;;;;4.05;2.15;;;19.00;86.70;;;;;;5005910;28;20030;-61
2023/07/05 06:07:07;;;;;;;3.75;1.98;;;19.10;86.60;;;;;;5005065;28;20033;-60
2023/07/05 06:09:43;;;;;;;4.55;1.92;;;19.10;86.60;;;;;;5005176;28;20029;-60
2023/07/05 06:12:09;;;;;;;4.97;1.90;;;19.20;87.60;;;;;;5003025;28;20053;-60
2023/07/05 06:14:34;;;;;;;4.18;2.10;;;19.20;86.90;;;;;;5005177;28;20026;-61
2023/07/05 06:17:00;;;;;;;2.08;1.88;;;19.20;87.10;;;;;;5003233;28;20041;-61
2023/07/05 06:19:26;;;;;;;3.95;2.00;;;19.20;87.10;;;;;;5003639;28;20033;-61
2023/07/05 06:21:51;;;;;;;2.67;2.10;;;19.20;86.80;;;;;;5013281;28;20518;-61
2023/07/05 06:24:17;;;;;;;2.53;2.03;;;19.30;86.80;;;;;;5005851;28;20038;-60
2023/07/05 06:26:42;;;;;;;3.50;2.10;;;19.30;87.10;;;;;;5005588;28;20037;-61
2023/07/05 06:29:08;;;;;;;8.38;2.10;;;19.30;87.10;;;;;;5004412;28;20100;-61
2023/07/05 06:31:33;;;;;;;2.85;2.03;;;19.30;87.30;;;;;;5005559;28;20056;-61
2023/07/05 06:34:00;;;;;;;5.30;2.20;;;19.40;87.50;;;;;;5002919;28;20031;-61
2023/07/05 06:36:25;;;;;;;4.40;2.10;;;19.40;87.70;;;;;;5005413;28;20034;-61
2023/07/05 06:38:51;;;;;;;4.00;2.10;;;19.50;87.70;;;;;;5003641;28;20060;-58
2023/07/05 06:41:18;;;;;;;3.45;1.77;;;19.50;87.40;;;;;;5004540;28;20034;-61
2023/07/05 06:43:44;;;;;;;3.00;1.88;;;19.60;87.30;;;;;;5004894;28;20030;-61
2023/07/05 06:46:09;;;;;;;3.83;1.77;;;19.70;87.40;;;;;;5003573;28;20036;-62
2023/07/05 06:48:35;;;;;;;5.22;2.03;;;19.80;87.00;;;;;;5004401;28;20045;-61
2023/07/05 06:51:01;;;;;;;3.30;1.90;;;19.80;86.70;;;;;;5003256;28;20039;-61
2023/07/05 06:53:26;;;;;;;2.58;1.88;;;19.80;86.70;;;;;;5005702;28;20320;-61
2023/07/05 06:55:52;;;;;;;3.92;1.98;;;19.90;86.70;;;;;;5004612;28;20029;-62
2023/07/05 06:58:19;;;;;;;2.75;1.98;;;20.00;86.50;;;;;;5004247;28;20034;-62
2023/07/05 07:00:49;;;;;;;2.05;1.88;;;20.10;86.20;;;;;;5002120;28;20364;-62
2023/07/05 07:03:15;;;;;;;3.22;2.00;;;20.10;86.00;;;;;;5003928;28;20076;-61
2023/07/05 07:05:50;;;;;;;2.28;1.80;;;20.20;86.00;;;;;;5003712;28;20520;-62
2023/07/05 07:08:15;;;;;;;3.05;2.20;;;20.20;85.50;;;;;;5004085;28;20042;-61
2023/07/05 07:10:41;;;;;;;2.45;2.10;;;20.30;85.30;;;;;;5000016;28;20044;-61
2023/07/05 07:13:06;;;;;;;2.67;1.90;;;20.30;85.00;;;;;;5004837;28;20050;-61
2023/07/05 07:15:32;;;;;;;3.78;2.15;;;20.40;84.60;;;;;;5003102;28;20045;-61
2023/07/05 07:17:57;;;;;;;3.55;2.30;;;20.50;85.20;;;;;;5003966;28;20442;-62
2023/07/05 07:20:25;;;;;;;2.13;1.92;;;20.50;84.60;;;;;;5004455;28;20117;-61
2023/07/05 07:22:51;;;;;;;2.05;1.85;;;20.60;84.40;;;;;;5004330;28;20046;-61
2023/07/05 07:25:16;;;;;;;3.17;2.30;;;20.70;84.60;;;;;;5003954;28;20145;-62
2023/07/05 07:27:42;;;;;;;2.28;1.90;;;20.70;84.30;;;;;;5003848;28;20040;-63
2023/07/05 07:30:08;;;;;;;2.15;1.55;;;20.80;84.00;;;;;;5005400;28;20091;-62
2023/07/05 07:32:33;;;;;;;2.20;1.80;;;20.80;83.60;;;;;;5003337;28;20497;-61
2023/07/05 07:34:59;;;;;;;1.67;1.52;;;20.90;83.50;;;;;;5003326;28;20034;-61
2023/07/05 07:37:24;;;;;;;3.10;1.83;;;21.00;83.50;;;;;;5003917;28;20560;-62
2023/07/05 07:39:50;;;;;;;2.47;1.60;;;21.10;83.40;;;;;;5004008;28;20125;-62
2023/07/05 07:42:16;;;;;;;3.00;1.85;;;21.10;83.10;;;;;;5002626;28;20458;-62
2023/07/05 07:44:41;;;;;;;2.35;1.67;;;21.20;82.40;;;;;;5002235;28;20406;-63
2023/07/05 07:47:07;;;;;;;3.95;1.67;;;21.30;81.60;;;;;;5002135;28;20037;-63
2023/07/05 07:49:33;;;;;;;2.40;1.73;;;21.30;80.70;;;;;;5001955;28;20034;-63
2023/07/05 07:51:59;;;;;;;1.85;1.75;;;21.40;80.00;;;;;;5002768;28;20114;-62
2023/07/05 07:54:31;;;;;;;2.50;1.65;;;21.40;79.70;;;;;;5003909;28;20073;-61
2023/07/05 07:56:57;;;;;;;1.77;1.60;;;21.40;79.50;;;;;;5002947;28;20038;-62
2023/07/05 07:59:23;;;;;;;2.10;1.60;;;21.40;79.10;;;;;;5003381;28;20061;-62
2023/07/05 08:01:49;;;;;;;2.10;1.90;;;21.50;79.00;;;;;;5001417;28;20050;-61
2023/07/05 08:04:16;;;;;;;2.38;1.60;;;21.50;79.10;;;;;;5004446;28;20595;-63
2023/07/05 08:06:44;;;;;;;1.75;1.50;;;21.50;78.90;;;;;;5002384;28;20030;-62
2023/07/05 08:09:13;;;;;;;2.50;1.42;;;21.60;79.10;;;;;;5003858;28;20149;-62
2023/07/05 08:11:39;;;;;;;2.58;1.55;;;21.70;78.90;;;;;;5000998;28;20033;-63
2023/07/05 08:14:05;;;;;;;1.95;1.50;;;21.70;79.10;;;;;;5003977;28;20521;-62
2023/07/05 08:16:31;;;;;;;3.05;1.52;;;21.80;78.60;;;;;;5003280;28;20520;-62
2023/07/05 08:18:57;;;;;;;2.00;1.50;;;21.90;78.60;;;;;;5005164;28;20038;-62
2023/07/05 08:21:23;;;;;;;1.77;1.50;;;22.00;77.30;;;;;;5003843;28;20045;-62
2023/07/05 08:23:49;;;;;;;1.52;1.42;;;22.10;76.60;;;;;;5006208;28;20524;-62
2023/07/05 08:26:15;;;;;;;1.30;1.20;;;22.20;76.30;;;;;;5007622;28;20061;-61
2023/07/05 08:28:41;;;;;;;2.00;1.30;;;22.20;76.30;;;;;;5008445;28;20026;-63
2023/07/05 08:31:08;;;;;;;1.30;1.20;;;22.30;75.00;;;;;;5008665;28;20025;-59
2023/07/05 08:33:36;;;;;;;3.58;1.38;;;22.30;74.20;;;;;;5006625;28;20067;-60
2023/07/05 08:36:07;;;;;;;1.95;1.38;;;22.40;74.00;;;;;;5007189;28;20452;-62
2023/07/05 08:38:33;;;;;;;1.58;1.48;;;22.40;73.90;;;;;;5007747;28;20060;-63
2023/07/05 08:41:24;;;;;;;1.65;1.35;;;22.40;74.20;;;;;;5006872;28;20121;-63
2023/07/05 08:43:56;;;;;;;1.90;1.48;;;22.50;72.80;;;;;;4981470;28;20556;-61
2023/07/05 08:46:23;;;;;;;2.60;1.38;;;22.60;73.50;;;;;;5007996;28;20057;-61
2023/07/05 08:48:49;;;;;;;2.03;1.48;;;22.60;73.30;;;;;;5006717;28;20495;-63
2023/07/05 08:51:17;;;;;;;1.77;1.42;;;22.70;72.90;;;;;;5003575;28;20584;-62
2023/07/05 08:53:51;;;;;;;2.30;1.60;;;22.70;71.80;;;;;;5006258;28;20092;-62
2023/07/05 08:56:34;;;;;;;3.22;1.52;;;22.80;71.20;;;;;;5006357;28;20046;-62
2023/07/05 08:59:19;;;;;;;3.05;1.60;;;22.80;71.00;;;;;;5005321;28;20046;-61
2023/07/05 09:01:45;;;;;;;2.13;1.57;;;22.80;70.00;;;;;;5006428;28;20025;-61
2023/07/05 09:04:25;;;;;;;2.03;1.55;;;22.80;71.30;;;;;;5007879;28;20288;-62
2023/07/05 09:07:13;;;;;;;2.10;1.70;;;22.80;70.60;;;;;;5004779;28;20037;-62
2023/07/05 09:09:51;;;;;;;2.90;1.40;;;22.90;70.40;;;;;;5007246;28;20539;-61
2023/07/05 09:12:40;;;;;;;1.83;1.40;;;22.90;70.90;;;;;;5003636;28;20132;-61
2023/07/05 09:15:23;;;;;;;2.10;1.30;;;22.90;70.40;;;;;;4986161;28;20436;-62
2023/07/05 09:17:54;;;;;;;1.60;1.23;;;22.80;68.80;;;;;;5005705;28;20033;-61
2023/07/05 09:20:22;;;;;;;2.67;1.20;;;22.80;69.00;;;;;;5005858;28;20121;-62
2023/07/05 09:22:50;;;;;;;1.00;0.90;;;22.70;69.20;;;;;;5005769;28;20038;-62
2023/07/05 09:25:19;;;;;;;1.50;1.25;;;22.70;69.50;;;;;;5006461;28;20633;-61
2023/07/05 09:27:50;;;;;;;1.95;0.90;;;22.70;69.00;;;;;;5005007;28;20039;-63
2023/07/05 09:30:28;;;;;;;1.00;0.90;;;22.70;69.50;;;;;;5006815;28;20038;-62
2023/07/05 09:33:16;;;;;;;2.15;1.10;;;22.70;69.90;;;;;;5004451;28;20037;-61
2023/07/05 09:35:45;;;;;;;1.20;1.10;;;22.70;69.70;;;;;;5004468;28;20034;-61
2023/07/05 09:38:23;;;;;;;2.13;0.90;;;22.80;69.70;;;;;;5006614;28;20112;-62
2023/07/05 09:41:00;;;;;;;1.17;0.90;;;22.90;70.00;;;;;;5004474;28;20037;-63
2023/07/05 09:43:31;;;;;;;0.98;0.80;;;23.00;69.40;;;;;;5006120;28;20030;-62
2023/07/05 09:46:01;;;;;;;1.00;0.80;;;23.00;69.20;;;;;;5003234;28;20664;-63
2023/07/05 09:48:29;;;;;;;1.27;0.80;;;23.20;68.50;;;;;;5005358;28;20044;-62
2023/07/05 09:50:54;;;;;;;0.60;0.52;;;23.20;68.10;;;;;;5005615;28;20050;-63
2023/07/05 09:53:51;;;;;;;2.30;0.75;;;23.40;67.60;;;;;;5005467;28;21946;-61
2023/07/05 09:56:27;;;;;;;1.95;0.70;;;23.40;66.30;;;;;;4996622;28;20057;-61
2023/07/05 09:59:04;;;;;;;0.60;0.60;;;23.50;66.60;;;;;;5005608;28;20038;-60
2023/07/05 10:01:30;;;;;;;0.52;0.52;;;23.60;66.40;;;;;;5005040;28;20033;-61
2023/07/05 10:04:00;;;;;;;0.35;0.35;;;23.60;66.00;;;;;;5004996;28;20515;-63
2023/07/05 10:06:28;;;;;;;1.13;0.38;;;23.60;63.80;;;;;;5005314;28;20041;-63
2023/07/05 10:08:55;;;;;;;0.93;0.40;;;23.50;62.60;;;;;;5005345;28;20105;-61
2023/07/05 10:11:34;;;;;;;1.30;0.40;;;23.20;63.00;;;;;;5002219;28;20560;-62
2023/07/05 10:14:05;;;;;;;0.40;0.40;;;23.00;63.70;;;;;;5005687;28;20041;-62
2023/07/05 10:16:46;;;;;;;0.50;0.30;;;22.80;64.00;;;;;;5005394;28;20378;-62
2023/07/05 10:19:28;;;;;;;0.80;0.40;;;22.60;65.30;;;;;;5003450;28;21368;-62
2023/07/05 10:22:06;;;;;;;0.35;0.25;;;22.40;65.30;;;;;;5004963;28;20042;-63
2023/07/05 10:24:40;;;;;;;0.38;0.30;;;22.20;66.60;;;;;;5006052;28;20051;-63
2023/07/05 10:27:24;;;;;;;0.50;0.30;;;22.10;66.80;;;;;;5005883;28;20116;-62
2023/07/05 10:30:00;;;;;;;0.40;0.40;;;22.00;67.80;;;;;;5004988;28;20034;-64
2023/07/05 10:32:26;;;;;;;0.73;0.28;;;21.90;67.80;;;;;;5003529;28;20037;-62
2023/07/05 10:34:52;;;;;;;1.20;0.35;;;21.80;67.80;;;;;;5004878;28;20076;-61
2023/07/05 10:37:31;;;;;;;0.82;0.30;;;21.80;68.50;;;;;;5005079;28;20041;-62
2023/07/05 10:39:58;;;;;;;1.00;0.50;;;21.80;68.90;;;;;;5004350;28;20060;-62
2023/07/05 10:42:28;;;;;;;0.57;0.40;;;21.80;69.20;;;;;;5005017;28;20065;-62
2023/07/05 10:44:54;;;;;;;0.63;0.38;;;21.70;69.40;;;;;;5004197;28;20034;-63
2023/07/05 10:47:21;;;;;;;0.30;0.30;;;21.70;70.00;;;;;;5004327;28;20034;-63
2023/07/05 10:49:51;;;;;;;0.52;0.30;;;21.60;70.50;;;;;;5003133;28;20037;-61
2023/07/05 10:52:18;;;;;;;0.30;0.20;;;21.70;71.10;;;;;;5004800;28;20042;-61
2023/07/05 10:55:09;;;;;;;0.30;0.30;;;21.70;71.30;;;;;;5004927;28;20133;-61
2023/07/05 10:57:45;;;;;;;0.40;0.30;;;21.70;73.00;;;;;;5004668;28;20030;-63
2023/07/05 11:00:37;;;;;;;0.47;0.20;;;21.70;72.10;;;;;;5004218;28;20521;-62
2023/07/05 11:03:11;;;;;;;0.30;0.30;;;21.80;71.10;;;;;;5003889;28;20042;-63
2023/07/05 11:05:45;;;;;;;0.20;0.20;;;21.90;70.90;;;;;;5004131;28;20030;-63
2023/07/05 11:08:30;;;;;;;0.73;0.20;;;22.10;70.60;;;;;;5005036;28;20041;-63
2023/07/05 11:10:58;;;;;;;0.22;0.22;;;22.20;71.30;;;;;;5000510;28;20041;-63
2023/07/05 11:13:24;;;;;;;0.55;0.30;;;22.30;70.60;;;;;;5003901;28;20033;-62
2023/07/05 11:15:50;;;;;;;0.30;0.30;;;22.40;69.90;;;;;;5003644;28;20113;-63
2023/07/05 11:18:21;;;;;;;0.50;0.30;;;22.50;69.80;;;;;;5005351;28;20049;-63
2023/07/05 11:20:49;;;;;;;0.30;0.30;;;22.60;69.70;;;;;;5003244;28;20064;-62
2023/07/05 11:23:43;;;;;;;0.47;0.38;;;22.80;70.30;;;;;;5004016;28;20061;-63
2023/07/05 11:26:11;;;;;;;0.30;0.30;;;23.00;68.70;;;;;;5004396;28;20037;-63
2023/07/05 11:28:41;;;;;;;0.30;0.30;;;23.20;67.30;;;;;;5003230;28;20060;-61
2023/07/05 11:31:27;;;;;;;1.10;0.57;;;23.30;66.10;;;;;;5002866;28;20508;-62
2023/07/05 11:34:20;;;;;;;0.30;0.30;;;23.40;65.30;;;;;;5004716;28;20666;-62
2023/07/05 11:37:06;;;;;;;0.57;0.50;;;23.40;65.80;;;;;;5003217;28;20441;-62
2023/07/05 11:39:35;;;;;;;0.40;0.40;;;23.40;66.00;;;;;;4997943;28;20038;-61
2023/07/05 11:42:13;;;;;;;0.70;0.50;;;23.50;66.00;;;;;;5004217;28;20019;-62
2023/07/05 11:44:39;;;;;;;0.98;0.60;;;23.50;61.30;;;;;;5003450;28;20046;-64
2023/07/05 11:47:08;;;;;;;0.70;0.70;;;23.50;61.20;;;;;;5004056;28;20037;-59
2023/07/05 11:49:40;;;;;;;0.80;0.80;;;23.60;61.50;;;;;;5003458;28;20034;-63
2023/07/05 11:52:23;;;;;;;0.98;0.93;;;23.60;58.10;;;;;;5004871;28;20034;-62
2023/07/05 11:54:49;;;;;;;0.98;0.88;;;23.60;56.60;;;;;;5003840;28;20040;-61
2023/07/05 11:57:15;;;;;;;0.75;0.75;;;23.70;56.70;;;;;;5002958;28;20108;-63
2023/07/05 11:59:53;;;;;;;0.70;0.70;;;23.70;54.80;;;;;;5006459;28;20601;-63
2023/07/05 12:02:31;;;;;;;0.70;0.70;;;23.80;55.00;;;;;;5007507;28;20045;-63
2023/07/05 12:05:00;;;;;;;0.70;0.70;;;23.90;54.90;;;;;;5007985;28;20048;-63
2023/07/05 12:07:27;;;;;;;0.80;0.80;;;24.00;56.00;;;;;;5007194;28;20037;-63
2023/07/05 12:09:56;;;;;;;1.67;0.75;;;24.10;55.80;;;;;;5007630;28;20041;-63
2023/07/05 12:12:22;;;;;;;0.80;0.70;;;24.20;53.70;;;;;;5004813;28;20065;-63
2023/07/05 12:14:49;;;;;;;1.55;0.85;;;24.30;54.80;;;;;;5005627;28;20038;-61
2023/07/05 12:17:17;;;;;;;0.80;0.80;;;24.40;54.20;;;;;;5005234;28;20026;-63
2023/07/05 12:19:44;;;;;;;0.73;0.63;;;24.50;54.00;;;;;;5008020;28;20513;-63
2023/07/05 12:22:20;;;;;;;1.10;0.55;;;24.50;53.60;;;;;;5007161;28;20046;-61
2023/07/05 12:24:49;;;;;;;1.30;0.60;;;24.60;52.60;;;;;;5006960;28;20042;-62
2023/07/05 12:27:24;;;;;;;0.75;0.75;;;24.60;54.10;;;;;;5008297;28;20038;-63
2023/07/05 12:29:59;;;;;;;0.77;0.70;;;24.60;52.50;;;;;;5007613;28;20084;-63
2023/07/05 12:32:27;;;;;;;3.70;0.80;;;24.60;52.80;;;;;;5005780;28;20030;-63
2023/07/05 12:35:14;;;;;;;0.73;0.73;;;24.60;52.80;;;;;;5006401;28;20038;-63
2023/07/05 12:37:40;;;;;;;0.63;0.63;;;24.60;52.40;;;;;;5007805;28;20037;-63
2023/07/05 12:40:16;;;;;;;0.80;0.80;;;24.70;53.50;;;;;;5007556;28;20034;-62
2023/07/05 12:43:03;;;;;;;0.80;0.80;;;24.60;53.00;;;;;;5005503;28;20042;-62
2023/07/05 12:45:34;;;;;;;0.88;0.50;;;24.60;52.30;;;;;;5007071;28;20049;-62
2023/07/05 12:48:28;;;;;;;1.20;0.70;;;24.60;54.10;;;;;;5003816;28;20458;-63
2023/07/05 12:51:14;;;;;;;0.60;0.60;;;24.70;52.90;;;;;;5006595;28;20076;-63
2023/07/05 12:53:40;;;;;;;0.80;0.80;;;24.70;54.40;;;;;;5007675;28;20049;-62
2023/07/05 12:56:10;;;;;;;1.02;0.88;;;24.70;54.50;;;;;;5006658;28;20045;-63
2023/07/05 12:58:39;;;;;;;0.80;0.70;;;24.80;53.70;;;;;;5007826;28;20505;-62
2023/07/05 13:01:11;;;;;;;1.77;0.90;;;24.90;53.90;;;;;;5006092;28;20064;-62